sensor_id;sensor_type;location;lat;lon;timestamp;P1;durP1;ratioP1;P2;durP2;ratioP2
69036;SDS011;58547;51.690;5.186;2022-10-31T00:03:17;13.70;;;7.17;;
69036;SDS011;58547;51.690;5.186;2022-10-31T00:05:43;16.58;;;9.63;;
69036;SDS011;58547;51.690;5.186;2022-10-31T00:08:10;19.73;;;9.40;;
69036;SDS011;58547;51.690;5.186;2022-10-31T00:13:04;17.35;;;8.50;;
69036;SDS011;58547;51.690;5.186;2022-10-31T00:17:58;14.73;;;8.02;;
69036;SDS011;58547;51.690;5.186;2022-10-31T00:20:23;13.57;;;8.55;;
69036;SDS011;58547;51.690;5.186;2022-10-31T00:25:14;16.23;;;8.13;;
69036;SDS011;58547;51.690;5.186;2022-10-31T00:30:04;16.97;;;7.90;;
69036;SDS011;58547;51.690;5.186;2022-10-31T00:34:55;16.58;;;8.25;;
69036;SDS011;58547;51.690;5.186;2022-10-31T00:37:20;15.55;;;8.90;;
69036;SDS011;58547;51.690;5.186;2022-10-31T00:39:46;18.85;;;8.23;;
69036;SDS011;58547;51.690;5.186;2022-10-31T00:42:13;18.83;;;9.52;;
69036;SDS011;58547;51.690;5.186;2022-10-31T00:47:04;19.07;;;10.37;;
69036;SDS011;58547;51.690;5.186;2022-10-31T00:49:29;17.08;;;8.20;;
69036;SDS011;58547;51.690;5.186;2022-10-31T00:54:20;17.90;;;9.03;;
69036;SDS011;58547;51.690;5.186;2022-10-31T00:56:45;14.37;;;8.47;;
69036;SDS011;58547;51.690;5.186;2022-10-31T00:59:10;14.88;;;7.55;;
69036;SDS011;58547;51.690;5.186;2022-10-31T01:01:35;14.82;;;9.25;;
69036;SDS011;58547;51.690;5.186;2022-10-31T01:06:26;15.30;;;8.60;;
69036;SDS011;58547;51.690;5.186;2022-10-31T01:08:51;21.27;;;11.07;;
69036;SDS011;58547;51.690;5.186;2022-10-31T01:13:43;16.38;;;8.75;;
69036;SDS011;58547;51.690;5.186;2022-10-31T01:18:36;21.13;;;9.48;;
69036;SDS011;58547;51.690;5.186;2022-10-31T01:23:28;16.15;;;10.02;;
69036;SDS011;58547;51.690;5.186;2022-10-31T01:28:30;24.35;;;10.95;;
69036;SDS011;58547;51.690;5.186;2022-10-31T01:33:24;16.10;;;9.65;;
69036;SDS011;58547;51.690;5.186;2022-10-31T01:38:14;13.13;;;8.43;;
69036;SDS011;58547;51.690;5.186;2022-10-31T01:40:40;17.92;;;9.80;;
69036;SDS011;58547;51.690;5.186;2022-10-31T01:43:07;20.52;;;10.13;;
69036;SDS011;58547;51.690;5.186;2022-10-31T01:45:37;14.68;;;8.43;;
69036;SDS011;58547;51.690;5.186;2022-10-31T01:50:28;21.17;;;11.30;;
69036;SDS011;58547;51.690;5.186;2022-10-31T01:52:57;16.05;;;9.55;;
69036;SDS011;58547;51.690;5.186;2022-10-31T01:55:25;13.75;;;9.23;;
69036;SDS011;58547;51.690;5.186;2022-10-31T01:57:53;16.75;;;10.07;;
69036;SDS011;58547;51.690;5.186;2022-10-31T02:00:21;15.60;;;10.43;;
69036;SDS011;58547;51.690;5.186;2022-10-31T02:05:14;17.60;;;10.00;;
69036;SDS011;58547;51.690;5.186;2022-10-31T02:07:45;13.93;;;9.30;;
69036;SDS011;58547;51.690;5.186;2022-10-31T02:10:19;12.30;;;8.80;;
69036;SDS011;58547;51.690;5.186;2022-10-31T02:12:46;13.63;;;8.45;;
69036;SDS011;58547;51.690;5.186;2022-10-31T02:17:37;15.45;;;9.48;;
69036;SDS011;58547;51.690;5.186;2022-10-31T02:37:02;17.63;;;9.50;;
69036;SDS011;58547;51.690;5.186;2022-10-31T02:39:38;17.05;;;8.80;;
69036;SDS011;58547;51.690;5.186;2022-10-31T02:42:31;19.70;;;10.05;;
69036;SDS011;58547;51.690;5.186;2022-10-31T02:47:43;15.52;;;8.73;;
69036;SDS011;58547;51.690;5.186;2022-10-31T02:52:43;16.45;;;9.23;;
69036;SDS011;58547;51.690;5.186;2022-10-31T02:57:54;17.42;;;9.82;;
69036;SDS011;58547;51.690;5.186;2022-10-31T03:00:23;16.83;;;10.25;;
69036;SDS011;58547;51.690;5.186;2022-10-31T03:08:25;17.63;;;9.77;;
69036;SDS011;58547;51.690;5.186;2022-10-31T03:10:53;16.85;;;10.10;;
69036;SDS011;58547;51.690;5.186;2022-10-31T03:15:59;24.30;;;13.10;;
69036;SDS011;58547;51.690;5.186;2022-10-31T03:21:01;15.48;;;9.73;;
69036;SDS011;58547;51.690;5.186;2022-10-31T03:23:33;18.67;;;10.18;;
69036;SDS011;58547;51.690;5.186;2022-10-31T03:26:01;21.77;;;11.00;;
69036;SDS011;58547;51.690;5.186;2022-10-31T03:28:30;13.77;;;8.90;;
69036;SDS011;58547;51.690;5.186;2022-10-31T03:31:01;14.05;;;8.35;;
69036;SDS011;58547;51.690;5.186;2022-10-31T03:33:30;19.30;;;10.45;;
69036;SDS011;58547;51.690;5.186;2022-10-31T03:35:59;18.15;;;10.50;;
69036;SDS011;58547;51.690;5.186;2022-10-31T03:38:27;20.98;;;10.82;;
69036;SDS011;58547;51.690;5.186;2022-10-31T03:40:54;20.30;;;10.13;;
69036;SDS011;58547;51.690;5.186;2022-10-31T03:43:25;15.65;;;9.82;;
69036;SDS011;58547;51.690;5.186;2022-10-31T03:45:55;18.25;;;10.50;;
69036;SDS011;58547;51.690;5.186;2022-10-31T03:50:51;15.25;;;9.48;;
69036;SDS011;58547;51.690;5.186;2022-10-31T03:56:09;14.20;;;9.07;;
69036;SDS011;58547;51.690;5.186;2022-10-31T03:58:45;22.52;;;10.55;;
69036;SDS011;58547;51.690;5.186;2022-10-31T04:01:19;16.30;;;9.90;;
69036;SDS011;58547;51.690;5.186;2022-10-31T04:03:46;14.27;;;9.75;;
69036;SDS011;58547;51.690;5.186;2022-10-31T04:06:13;16.50;;;9.65;;
69036;SDS011;58547;51.690;5.186;2022-10-31T04:08:42;13.65;;;8.63;;
69036;SDS011;58547;51.690;5.186;2022-10-31T04:11:13;12.45;;;9.10;;
69036;SDS011;58547;51.690;5.186;2022-10-31T04:13:42;13.98;;;9.15;;
69036;SDS011;58547;51.690;5.186;2022-10-31T04:16:09;17.67;;;10.88;;
69036;SDS011;58547;51.690;5.186;2022-10-31T04:18:36;11.80;;;8.05;;
69036;SDS011;58547;51.690;5.186;2022-10-31T04:21:05;16.70;;;9.73;;
69036;SDS011;58547;51.690;5.186;2022-10-31T04:23:31;14.38;;;9.40;;
69036;SDS011;58547;51.690;5.186;2022-10-31T04:25:58;14.32;;;8.93;;
69036;SDS011;58547;51.690;5.186;2022-10-31T04:28:23;14.20;;;9.73;;
69036;SDS011;58547;51.690;5.186;2022-10-31T04:30:49;10.85;;;8.38;;
69036;SDS011;58547;51.690;5.186;2022-10-31T04:33:14;12.88;;;8.63;;
69036;SDS011;58547;51.690;5.186;2022-10-31T04:35:40;19.02;;;9.98;;
69036;SDS011;58547;51.690;5.186;2022-10-31T04:38:06;14.00;;;9.80;;
69036;SDS011;58547;51.690;5.186;2022-10-31T04:40:31;19.48;;;11.30;;
69036;SDS011;58547;51.690;5.186;2022-10-31T04:42:56;16.23;;;11.85;;
69036;SDS011;58547;51.690;5.186;2022-10-31T04:45:21;17.10;;;9.52;;
69036;SDS011;58547;51.690;5.186;2022-10-31T04:47:47;21.55;;;13.82;;
69036;SDS011;58547;51.690;5.186;2022-10-31T04:50:12;15.93;;;11.27;;
69036;SDS011;58547;51.690;5.186;2022-10-31T04:52:41;15.37;;;9.87;;
69036;SDS011;58547;51.690;5.186;2022-10-31T04:55:07;17.60;;;11.27;;
69036;SDS011;58547;51.690;5.186;2022-10-31T04:57:39;13.23;;;8.90;;
69036;SDS011;58547;51.690;5.186;2022-10-31T05:00:09;16.85;;;10.20;;
69036;SDS011;58547;51.690;5.186;2022-10-31T05:02:42;15.82;;;10.65;;
69036;SDS011;58547;51.690;5.186;2022-10-31T05:05:12;16.33;;;11.05;;
69036;SDS011;58547;51.690;5.186;2022-10-31T05:07:39;21.55;;;13.18;;
69036;SDS011;58547;51.690;5.186;2022-10-31T05:10:06;25.35;;;12.40;;
69036;SDS011;58547;51.690;5.186;2022-10-31T05:12:32;17.85;;;12.02;;
69036;SDS011;58547;51.690;5.186;2022-10-31T05:14:57;15.20;;;11.23;;
69036;SDS011;58547;51.690;5.186;2022-10-31T05:17:23;18.90;;;11.83;;
69036;SDS011;58547;51.690;5.186;2022-10-31T05:19:48;19.45;;;12.20;;
69036;SDS011;58547;51.690;5.186;2022-10-31T05:22:13;19.35;;;11.98;;
69036;SDS011;58547;51.690;5.186;2022-10-31T05:24:38;17.00;;;11.97;;
69036;SDS011;58547;51.690;5.186;2022-10-31T05:27:04;18.33;;;12.68;;
69036;SDS011;58547;51.690;5.186;2022-10-31T05:29:29;20.87;;;12.87;;
69036;SDS011;58547;51.690;5.186;2022-10-31T05:31:58;20.38;;;13.57;;
69036;SDS011;58547;51.690;5.186;2022-10-31T05:34:24;20.38;;;12.18;;
69036;SDS011;58547;51.690;5.186;2022-10-31T05:36:49;19.50;;;12.97;;
69036;SDS011;58547;51.690;5.186;2022-10-31T05:39:14;20.27;;;13.75;;
69036;SDS011;58547;51.690;5.186;2022-10-31T05:41:39;23.93;;;13.07;;
69036;SDS011;58547;51.690;5.186;2022-10-31T05:44:05;21.33;;;13.63;;
69036;SDS011;58547;51.690;5.186;2022-10-31T05:46:30;22.15;;;13.40;;
69036;SDS011;58547;51.690;5.186;2022-10-31T05:48:55;22.65;;;13.48;;
69036;SDS011;58547;51.690;5.186;2022-10-31T05:51:20;19.50;;;12.67;;
69036;SDS011;58547;51.690;5.186;2022-10-31T05:53:46;24.27;;;14.03;;
69036;SDS011;58547;51.690;5.186;2022-10-31T05:58:37;21.85;;;12.65;;
69036;SDS011;58547;51.690;5.186;2022-10-31T06:01:02;18.75;;;12.55;;
69036;SDS011;58547;51.690;5.186;2022-10-31T06:03:28;22.17;;;14.98;;
69036;SDS011;58547;51.690;5.186;2022-10-31T06:05:53;26.25;;;15.13;;
69036;SDS011;58547;51.690;5.186;2022-10-31T06:08:18;24.23;;;14.90;;
69036;SDS011;58547;51.690;5.186;2022-10-31T06:10:44;23.13;;;13.52;;
69036;SDS011;58547;51.690;5.186;2022-10-31T06:13:09;23.20;;;14.50;;
69036;SDS011;58547;51.690;5.186;2022-10-31T06:15:34;26.60;;;14.13;;
69036;SDS011;58547;51.690;5.186;2022-10-31T06:18:00;24.15;;;15.20;;
69036;SDS011;58547;51.690;5.186;2022-10-31T06:20:27;22.40;;;15.05;;
69036;SDS011;58547;51.690;5.186;2022-10-31T06:22:52;23.13;;;14.40;;
69036;SDS011;58547;51.690;5.186;2022-10-31T06:25:17;23.87;;;14.90;;
69036;SDS011;58547;51.690;5.186;2022-10-31T06:27:43;20.87;;;13.23;;
69036;SDS011;58547;51.690;5.186;2022-10-31T06:30:08;25.57;;;15.57;;
69036;SDS011;58547;51.690;5.186;2022-10-31T06:32:34;23.55;;;15.32;;
69036;SDS011;58547;51.690;5.186;2022-10-31T06:34:59;30.43;;;18.27;;
69036;SDS011;58547;51.690;5.186;2022-10-31T06:37:24;24.10;;;13.73;;
69036;SDS011;58547;51.690;5.186;2022-10-31T06:39:50;22.93;;;14.50;;
69036;SDS011;58547;51.690;5.186;2022-10-31T06:42:15;20.83;;;13.17;;
69036;SDS011;58547;51.690;5.186;2022-10-31T06:44:41;26.15;;;14.68;;
69036;SDS011;58547;51.690;5.186;2022-10-31T06:47:06;25.87;;;14.20;;
69036;SDS011;58547;51.690;5.186;2022-10-31T06:49:31;19.57;;;12.63;;
69036;SDS011;58547;51.690;5.186;2022-10-31T06:51:57;25.92;;;14.70;;
69036;SDS011;58547;51.690;5.186;2022-10-31T06:54:22;28.73;;;15.97;;
69036;SDS011;58547;51.690;5.186;2022-10-31T06:56:47;27.13;;;15.00;;
69036;SDS011;58547;51.690;5.186;2022-10-31T06:59:13;27.23;;;14.80;;
69036;SDS011;58547;51.690;5.186;2022-10-31T07:01:39;25.65;;;14.18;;
69036;SDS011;58547;51.690;5.186;2022-10-31T07:04:04;23.90;;;15.52;;
69036;SDS011;58547;51.690;5.186;2022-10-31T07:06:30;27.13;;;14.93;;
69036;SDS011;58547;51.690;5.186;2022-10-31T07:08:55;25.60;;;14.23;;
69036;SDS011;58547;51.690;5.186;2022-10-31T07:11:20;22.27;;;13.87;;
69036;SDS011;58547;51.690;5.186;2022-10-31T07:13:46;21.40;;;14.10;;
69036;SDS011;58547;51.690;5.186;2022-10-31T07:16:11;40.78;;;16.77;;
69036;SDS011;58547;51.690;5.186;2022-10-31T07:18:37;23.60;;;13.02;;
69036;SDS011;58547;51.690;5.186;2022-10-31T07:21:03;24.65;;;15.35;;
69036;SDS011;58547;51.690;5.186;2022-10-31T07:23:29;26.77;;;15.43;;
69036;SDS011;58547;51.690;5.186;2022-10-31T07:25:55;36.92;;;16.65;;
69036;SDS011;58547;51.690;5.186;2022-10-31T07:28:22;26.90;;;15.43;;
69036;SDS011;58547;51.690;5.186;2022-10-31T07:33:17;26.30;;;16.20;;
69036;SDS011;58547;51.690;5.186;2022-10-31T07:35:42;34.57;;;15.53;;
69036;SDS011;58547;51.690;5.186;2022-10-31T07:38:08;28.95;;;15.65;;
69036;SDS011;58547;51.690;5.186;2022-10-31T07:40:35;29.88;;;16.70;;
69036;SDS011;58547;51.690;5.186;2022-10-31T07:43:00;26.98;;;16.13;;
69036;SDS011;58547;51.690;5.186;2022-10-31T07:45:25;28.23;;;15.55;;
69036;SDS011;58547;51.690;5.186;2022-10-31T07:47:55;26.55;;;16.48;;
69036;SDS011;58547;51.690;5.186;2022-10-31T07:50:21;25.52;;;15.73;;
69036;SDS011;58547;51.690;5.186;2022-10-31T07:52:57;27.08;;;16.90;;
69036;SDS011;58547;51.690;5.186;2022-10-31T07:55:27;23.65;;;14.73;;
69036;SDS011;58547;51.690;5.186;2022-10-31T08:00:22;26.83;;;16.02;;
69036;SDS011;58547;51.690;5.186;2022-10-31T08:02:47;29.45;;;18.38;;
69036;SDS011;58547;51.690;5.186;2022-10-31T08:05:12;28.93;;;16.63;;
69036;SDS011;58547;51.690;5.186;2022-10-31T08:07:38;29.48;;;17.65;;
69036;SDS011;58547;51.690;5.186;2022-10-31T08:10:04;30.95;;;19.33;;
69036;SDS011;58547;51.690;5.186;2022-10-31T08:12:29;35.92;;;18.50;;
69036;SDS011;58547;51.690;5.186;2022-10-31T08:14:55;31.05;;;20.10;;
69036;SDS011;58547;51.690;5.186;2022-10-31T08:17:20;35.95;;;21.45;;
69036;SDS011;58547;51.690;5.186;2022-10-31T08:19:45;32.60;;;18.33;;
69036;SDS011;58547;51.690;5.186;2022-10-31T08:22:11;36.50;;;21.58;;
69036;SDS011;58547;51.690;5.186;2022-10-31T08:24:36;36.50;;;20.65;;
69036;SDS011;58547;51.690;5.186;2022-10-31T08:27:01;35.83;;;21.87;;
69036;SDS011;58547;51.690;5.186;2022-10-31T08:29:27;41.33;;;22.83;;
69036;SDS011;58547;51.690;5.186;2022-10-31T08:34:17;38.23;;;22.97;;
69036;SDS011;58547;51.690;5.186;2022-10-31T08:36:42;39.43;;;20.00;;
69036;SDS011;58547;51.690;5.186;2022-10-31T08:39:09;41.42;;;21.90;;
69036;SDS011;58547;51.690;5.186;2022-10-31T08:44:00;35.30;;;21.47;;
69036;SDS011;58547;51.690;5.186;2022-10-31T08:46:26;37.50;;;22.98;;
69036;SDS011;58547;51.690;5.186;2022-10-31T08:48:51;43.83;;;23.13;;
69036;SDS011;58547;51.690;5.186;2022-10-31T08:51:16;43.30;;;23.37;;
69036;SDS011;58547;51.690;5.186;2022-10-31T08:53:41;47.08;;;24.58;;
69036;SDS011;58547;51.690;5.186;2022-10-31T08:58:32;43.87;;;22.63;;
69036;SDS011;58547;51.690;5.186;2022-10-31T09:03:25;47.42;;;27.05;;
69036;SDS011;58547;51.690;5.186;2022-10-31T09:06:00;40.28;;;24.58;;
69036;SDS011;58547;51.690;5.186;2022-10-31T09:08:31;37.58;;;23.15;;
69036;SDS011;58547;51.690;5.186;2022-10-31T09:10:58;51.10;;;28.08;;
69036;SDS011;58547;51.690;5.186;2022-10-31T09:13:23;47.05;;;26.38;;
69036;SDS011;58547;51.690;5.186;2022-10-31T09:18:17;45.25;;;26.95;;
69036;SDS011;58547;51.690;5.186;2022-10-31T09:20:44;50.80;;;25.77;;
69036;SDS011;58547;51.690;5.186;2022-10-31T09:23:18;47.83;;;25.15;;
69036;SDS011;58547;51.690;5.186;2022-10-31T09:25:47;43.50;;;24.15;;
69036;SDS011;58547;51.690;5.186;2022-10-31T09:28:14;46.35;;;25.48;;
69036;SDS011;58547;51.690;5.186;2022-10-31T09:30:41;47.15;;;26.15;;
69036;SDS011;58547;51.690;5.186;2022-10-31T09:35:34;44.40;;;22.70;;
69036;SDS011;58547;51.690;5.186;2022-10-31T09:40:31;37.38;;;22.20;;
69036;SDS011;58547;51.690;5.186;2022-10-31T09:43:12;31.75;;;20.40;;
69036;SDS011;58547;51.690;5.186;2022-10-31T09:48:20;33.15;;;20.67;;
69036;SDS011;58547;51.690;5.186;2022-10-31T09:51:12;36.67;;;22.05;;
69036;SDS011;58547;51.690;5.186;2022-10-31T09:53:48;34.08;;;19.73;;
69036;SDS011;58547;51.690;5.186;2022-10-31T09:56:19;35.33;;;22.55;;
69036;SDS011;58547;51.690;5.186;2022-10-31T09:58:47;31.08;;;20.10;;
69036;SDS011;58547;51.690;5.186;2022-10-31T10:07:16;30.85;;;19.20;;
69036;SDS011;58547;51.690;5.186;2022-10-31T10:09:47;33.63;;;21.23;;
69036;SDS011;58547;51.690;5.186;2022-10-31T10:18:04;35.50;;;21.23;;
69036;SDS011;58547;51.690;5.186;2022-10-31T10:23:43;38.80;;;23.27;;
69036;SDS011;58547;51.690;5.186;2022-10-31T10:26:16;30.10;;;18.55;;
69036;SDS011;58547;51.690;5.186;2022-10-31T10:28:44;36.83;;;21.75;;
69036;SDS011;58547;51.690;5.186;2022-10-31T10:31:28;35.78;;;22.55;;
69036;SDS011;58547;51.690;5.186;2022-10-31T10:34:01;36.00;;;21.60;;
69036;SDS011;58547;51.690;5.186;2022-10-31T10:36:41;36.22;;;22.35;;
69036;SDS011;58547;51.690;5.186;2022-10-31T10:39:14;39.30;;;21.40;;
69036;SDS011;58547;51.690;5.186;2022-10-31T10:41:44;36.42;;;20.90;;
69036;SDS011;58547;51.690;5.186;2022-10-31T10:44:33;44.00;;;22.80;;
69036;SDS011;58547;51.690;5.186;2022-10-31T10:47:21;38.90;;;22.52;;
69036;SDS011;58547;51.690;5.186;2022-10-31T10:50:02;36.17;;;21.65;;
69036;SDS011;58547;51.690;5.186;2022-10-31T10:52:41;39.25;;;24.35;;
69036;SDS011;58547;51.690;5.186;2022-10-31T10:57:56;39.72;;;23.75;;
69036;SDS011;58547;51.690;5.186;2022-10-31T11:00:30;41.75;;;23.52;;
69036;SDS011;58547;51.690;5.186;2022-10-31T11:02:59;39.53;;;23.65;;
69036;SDS011;58547;51.690;5.186;2022-10-31T11:07:55;44.50;;;23.38;;
69036;SDS011;58547;51.690;5.186;2022-10-31T11:13:01;44.95;;;24.83;;
69036;SDS011;58547;51.690;5.186;2022-10-31T11:15:26;44.97;;;25.75;;
69036;SDS011;58547;51.690;5.186;2022-10-31T11:17:54;47.72;;;24.50;;
69036;SDS011;58547;51.690;5.186;2022-10-31T11:20:26;42.88;;;25.13;;
69036;SDS011;58547;51.690;5.186;2022-10-31T11:23:04;43.00;;;25.23;;
69036;SDS011;58547;51.690;5.186;2022-10-31T11:25:47;53.85;;;27.27;;
69036;SDS011;58547;51.690;5.186;2022-10-31T11:28:14;46.13;;;25.65;;
69036;SDS011;58547;51.690;5.186;2022-10-31T11:35:57;46.38;;;26.27;;
69036;SDS011;58547;51.690;5.186;2022-10-31T11:38:24;43.33;;;26.17;;
69036;SDS011;58547;51.690;5.186;2022-10-31T11:41:15;48.80;;;26.52;;
69036;SDS011;58547;51.690;5.186;2022-10-31T11:43:49;57.80;;;29.15;;
69036;SDS011;58547;51.690;5.186;2022-10-31T11:46:38;44.13;;;26.70;;
69036;SDS011;58547;51.690;5.186;2022-10-31T11:49:12;56.75;;;30.40;;
69036;SDS011;58547;51.690;5.186;2022-10-31T11:51:54;53.35;;;29.27;;
69036;SDS011;58547;51.690;5.186;2022-10-31T11:54:31;53.75;;;29.70;;
69036;SDS011;58547;51.690;5.186;2022-10-31T11:57:01;55.85;;;31.63;;
69036;SDS011;58547;51.690;5.186;2022-10-31T11:59:30;50.90;;;29.45;;
69036;SDS011;58547;51.690;5.186;2022-10-31T12:01:57;53.47;;;30.13;;
69036;SDS011;58547;51.690;5.186;2022-10-31T12:04:28;52.00;;;29.95;;
69036;SDS011;58547;51.690;5.186;2022-10-31T12:06:59;58.28;;;31.10;;
69036;SDS011;58547;51.690;5.186;2022-10-31T12:09:28;61.63;;;29.77;;
69036;SDS011;58547;51.690;5.186;2022-10-31T12:15:01;51.10;;;30.02;;
69036;SDS011;58547;51.690;5.186;2022-10-31T12:23:18;56.72;;;30.33;;
69036;SDS011;58547;51.690;5.186;2022-10-31T12:31:40;52.15;;;30.75;;
69036;SDS011;58547;51.690;5.186;2022-10-31T12:42:45;53.50;;;30.25;;
69036;SDS011;58547;51.690;5.186;2022-10-31T12:45:18;50.75;;;31.50;;
69036;SDS011;58547;51.690;5.186;2022-10-31T12:47:59;58.10;;;31.25;;
69036;SDS011;58547;51.690;5.186;2022-10-31T12:50:56;51.15;;;31.30;;
69036;SDS011;58547;51.690;5.186;2022-10-31T12:56:21;49.33;;;29.58;;
69036;SDS011;58547;51.690;5.186;2022-10-31T13:07:49;53.85;;;32.00;;
69036;SDS011;58547;51.690;5.186;2022-10-31T13:10:24;48.22;;;31.40;;
69036;SDS011;58547;51.690;5.186;2022-10-31T13:12:57;52.38;;;30.58;;
69036;SDS011;58547;51.690;5.186;2022-10-31T13:15:28;47.70;;;28.83;;
69036;SDS011;58547;51.690;5.186;2022-10-31T13:18:01;41.75;;;26.38;;
69036;SDS011;58547;51.690;5.186;2022-10-31T13:20:33;49.33;;;27.45;;
69036;SDS011;58547;51.690;5.186;2022-10-31T13:23:05;43.53;;;25.92;;
69036;SDS011;58547;51.690;5.186;2022-10-31T13:25:42;49.78;;;28.42;;
69036;SDS011;58547;51.690;5.186;2022-10-31T13:28:29;44.30;;;25.25;;
69036;SDS011;58547;51.690;5.186;2022-10-31T13:31:01;53.05;;;28.33;;
69036;SDS011;58547;51.690;5.186;2022-10-31T13:33:32;54.45;;;30.80;;
69036;SDS011;58547;51.690;5.186;2022-10-31T13:44:00;45.53;;;28.13;;
69036;SDS011;58547;51.690;5.186;2022-10-31T13:48:57;47.47;;;25.40;;
69036;SDS011;58547;51.690;5.186;2022-10-31T13:51:27;44.83;;;25.23;;
69036;SDS011;58547;51.690;5.186;2022-10-31T13:56:32;48.63;;;26.40;;
69036;SDS011;58547;51.690;5.186;2022-10-31T13:59:00;42.17;;;22.25;;
69036;SDS011;58547;51.690;5.186;2022-10-31T14:01:29;40.92;;;24.25;;
69036;SDS011;58547;51.690;5.186;2022-10-31T14:04:07;37.92;;;24.70;;
69036;SDS011;58547;51.690;5.186;2022-10-31T14:09:19;44.78;;;22.92;;
69036;SDS011;58547;51.690;5.186;2022-10-31T14:11:49;36.58;;;22.13;;
69036;SDS011;58547;51.690;5.186;2022-10-31T14:14:15;34.92;;;22.52;;
69036;SDS011;58547;51.690;5.186;2022-10-31T14:16:42;40.28;;;22.38;;
69036;SDS011;58547;51.690;5.186;2022-10-31T14:19:19;37.92;;;24.33;;
69036;SDS011;58547;51.690;5.186;2022-10-31T14:21:46;33.45;;;19.38;;
69036;SDS011;58547;51.690;5.186;2022-10-31T14:24:14;40.95;;;21.15;;
69036;SDS011;58547;51.690;5.186;2022-10-31T14:29:22;35.45;;;19.20;;
69036;SDS011;58547;51.690;5.186;2022-10-31T14:40:20;31.83;;;17.45;;
69036;SDS011;58547;51.690;5.186;2022-10-31T14:43:16;28.70;;;16.67;;
69036;SDS011;58547;51.690;5.186;2022-10-31T14:48:51;31.50;;;16.98;;
69036;SDS011;58547;51.690;5.186;2022-10-31T14:51:42;29.00;;;16.10;;
69036;SDS011;58547;51.690;5.186;2022-10-31T14:54:13;32.05;;;16.58;;
69036;SDS011;58547;51.690;5.186;2022-10-31T14:56:46;34.25;;;15.43;;
69036;SDS011;58547;51.690;5.186;2022-10-31T14:59:15;24.02;;;15.25;;
69036;SDS011;58547;51.690;5.186;2022-10-31T15:01:52;29.58;;;14.40;;
69036;SDS011;58547;51.690;5.186;2022-10-31T15:04:28;28.02;;;13.98;;
69036;SDS011;58547;51.690;5.186;2022-10-31T15:06:59;24.88;;;13.52;;
69036;SDS011;58547;51.690;5.186;2022-10-31T15:09:30;30.27;;;14.65;;
69036;SDS011;58547;51.690;5.186;2022-10-31T15:12:00;29.25;;;14.50;;
69036;SDS011;58547;51.690;5.186;2022-10-31T15:14:41;25.75;;;14.80;;
69036;SDS011;58547;51.690;5.186;2022-10-31T15:19:35;24.75;;;14.48;;
69036;SDS011;58547;51.690;5.186;2022-10-31T15:22:02;27.58;;;14.50;;
69036;SDS011;58547;51.690;5.186;2022-10-31T15:24:35;29.83;;;15.25;;
69036;SDS011;58547;51.690;5.186;2022-10-31T15:27:03;31.25;;;15.80;;
69036;SDS011;58547;51.690;5.186;2022-10-31T15:29:30;30.85;;;15.35;;
69036;SDS011;58547;51.690;5.186;2022-10-31T15:31:59;26.38;;;13.93;;
69036;SDS011;58547;51.690;5.186;2022-10-31T15:34:43;28.13;;;15.20;;
69036;SDS011;58547;51.690;5.186;2022-10-31T15:37:13;26.33;;;14.32;;
69036;SDS011;58547;51.690;5.186;2022-10-31T15:39:43;27.60;;;14.57;;
69036;SDS011;58547;51.690;5.186;2022-10-31T15:45:04;27.23;;;13.38;;
69036;SDS011;58547;51.690;5.186;2022-10-31T15:47:56;24.15;;;15.10;;
69036;SDS011;58547;51.690;5.186;2022-10-31T15:50:26;27.95;;;13.18;;
69036;SDS011;58547;51.690;5.186;2022-10-31T15:53:11;21.20;;;13.65;;
69036;SDS011;58547;51.690;5.186;2022-10-31T15:55:46;27.02;;;15.35;;
69036;SDS011;58547;51.690;5.186;2022-10-31T15:58:16;25.17;;;14.27;;
69036;SDS011;58547;51.690;5.186;2022-10-31T16:00:42;22.15;;;13.93;;
69036;SDS011;58547;51.690;5.186;2022-10-31T16:05:43;30.73;;;14.95;;
69036;SDS011;58547;51.690;5.186;2022-10-31T16:10:58;29.00;;;13.70;;
69036;SDS011;58547;51.690;5.186;2022-10-31T16:13:26;24.17;;;13.57;;
69036;SDS011;58547;51.690;5.186;2022-10-31T16:15:57;29.25;;;15.10;;
69036;SDS011;58547;51.690;5.186;2022-10-31T16:18:27;25.92;;;15.07;;
69036;SDS011;58547;51.690;5.186;2022-10-31T16:20:55;31.88;;;15.55;;
69036;SDS011;58547;51.690;5.186;2022-10-31T16:23:21;23.63;;;13.27;;
69036;SDS011;58547;51.690;5.186;2022-10-31T16:25:49;29.90;;;15.13;;
69036;SDS011;58547;51.690;5.186;2022-10-31T16:28:16;29.60;;;15.35;;
69036;SDS011;58547;51.690;5.186;2022-10-31T16:30:45;25.02;;;14.35;;
69036;SDS011;58547;51.690;5.186;2022-10-31T16:33:25;32.80;;;16.30;;
69036;SDS011;58547;51.690;5.186;2022-10-31T16:35:50;32.40;;;15.60;;
69036;SDS011;58547;51.690;5.186;2022-10-31T16:40:41;27.77;;;13.87;;
69036;SDS011;58547;51.690;5.186;2022-10-31T16:45:37;31.13;;;15.07;;
69036;SDS011;58547;51.690;5.186;2022-10-31T16:48:12;30.25;;;15.07;;
69036;SDS011;58547;51.690;5.186;2022-10-31T16:50:40;30.27;;;15.15;;
69036;SDS011;58547;51.690;5.186;2022-10-31T16:53:06;28.55;;;15.23;;
69036;SDS011;58547;51.690;5.186;2022-10-31T16:58:00;41.92;;;19.95;;
69036;SDS011;58547;51.690;5.186;2022-10-31T17:00:26;38.25;;;18.52;;
69036;SDS011;58547;51.690;5.186;2022-10-31T17:02:53;27.00;;;14.82;;
69036;SDS011;58547;51.690;5.186;2022-10-31T17:05:21;38.03;;;18.25;;
69036;SDS011;58547;51.690;5.186;2022-10-31T17:07:54;36.10;;;16.08;;
69036;SDS011;58547;51.690;5.186;2022-10-31T17:10:20;36.67;;;18.63;;
69036;SDS011;58547;51.690;5.186;2022-10-31T17:15:47;27.48;;;15.93;;
69036;SDS011;58547;51.690;5.186;2022-10-31T17:18:06;30.42;;;16.05;;
69036;SDS011;58547;51.690;5.186;2022-10-31T17:22:57;42.73;;;22.20;;
69036;SDS011;58547;51.690;5.186;2022-10-31T17:25:24;43.58;;;21.52;;
69036;SDS011;58547;51.690;5.186;2022-10-31T17:27:51;65.97;;;27.23;;
69036;SDS011;58547;51.690;5.186;2022-10-31T17:32:43;39.92;;;17.33;;
69036;SDS011;58547;51.690;5.186;2022-10-31T17:35:10;39.83;;;18.38;;
69036;SDS011;58547;51.690;5.186;2022-10-31T17:37:37;34.05;;;17.60;;
69036;SDS011;58547;51.690;5.186;2022-10-31T17:42:27;37.08;;;19.55;;
69036;SDS011;58547;51.690;5.186;2022-10-31T17:44:53;36.20;;;19.80;;
69036;SDS011;58547;51.690;5.186;2022-10-31T17:49:43;37.50;;;20.43;;
69036;SDS011;58547;51.690;5.186;2022-10-31T17:52:09;32.17;;;18.77;;
69036;SDS011;58547;51.690;5.186;2022-10-31T17:56:59;39.83;;;14.83;;
69036;SDS011;58547;51.690;5.186;2022-10-31T17:59:24;29.70;;;15.65;;
69036;SDS011;58547;51.690;5.186;2022-10-31T18:01:52;19.10;;;11.90;;
69036;SDS011;58547;51.690;5.186;2022-10-31T18:06:43;37.67;;;21.53;;
69036;SDS011;58547;51.690;5.186;2022-10-31T18:09:09;35.50;;;18.80;;
69036;SDS011;58547;51.690;5.186;2022-10-31T18:16:25;23.17;;;12.40;;
69036;SDS011;58547;51.690;5.186;2022-10-31T18:21:17;21.08;;;12.35;;
69036;SDS011;58547;51.690;5.186;2022-10-31T18:23:43;32.00;;;13.50;;
69036;SDS011;58547;51.690;5.186;2022-10-31T18:28:34;26.13;;;13.77;;
69036;SDS011;58547;51.690;5.186;2022-10-31T18:31:00;18.98;;;10.45;;
69036;SDS011;58547;51.690;5.186;2022-10-31T18:35:51;21.80;;;10.90;;
69036;SDS011;58547;51.690;5.186;2022-10-31T18:40:41;20.90;;;11.00;;
69036;SDS011;58547;51.690;5.186;2022-10-31T18:43:07;17.35;;;10.45;;
69036;SDS011;58547;51.690;5.186;2022-10-31T18:45:32;20.45;;;10.40;;
69036;SDS011;58547;51.690;5.186;2022-10-31T18:50:22;17.20;;;9.43;;